sensor_id;sensor_type;location;lat;lon;timestamp;P1;durP1;ratioP1;P2;durP2;ratioP2
20411;SDS011;10365;52.578;8.138;2023-05-02T00:02:07;29.92;;;18.60;;
20411;SDS011;10365;52.578;8.138;2023-05-02T00:04:32;28.33;;;17.92;;
20411;SDS011;10365;52.578;8.138;2023-05-02T00:06:58;30.13;;;18.23;;
20411;SDS011;10365;52.578;8.138;2023-05-02T00:09:23;34.33;;;20.00;;
20411;SDS011;10365;52.578;8.138;2023-05-02T00:11:48;31.40;;;19.50;;
20411;SDS011;10365;52.578;8.138;2023-05-02T00:14:14;30.42;;;19.48;;
20411;SDS011;10365;52.578;8.138;2023-05-02T00:16:39;35.10;;;20.02;;
20411;SDS011;10365;52.578;8.138;2023-05-02T00:19:04;29.52;;;18.77;;
20411;SDS011;10365;52.578;8.138;2023-05-02T00:21:30;31.58;;;17.98;;
20411;SDS011;10365;52.578;8.138;2023-05-02T00:23:55;31.92;;;18.52;;
20411;SDS011;10365;52.578;8.138;2023-05-02T00:26:24;32.47;;;18.63;;
20411;SDS011;10365;52.578;8.138;2023-05-02T00:28:49;32.58;;;19.40;;
20411;SDS011;10365;52.578;8.138;2023-05-02T00:31:15;33.13;;;19.23;;
20411;SDS011;10365;52.578;8.138;2023-05-02T00:33:41;35.70;;;19.17;;
20411;SDS011;10365;52.578;8.138;2023-05-02T00:36:13;32.90;;;20.80;;
20411;SDS011;10365;52.578;8.138;2023-05-02T00:38:39;27.15;;;19.05;;
20411;SDS011;10365;52.578;8.138;2023-05-02T00:41:04;32.08;;;19.27;;
20411;SDS011;10365;52.578;8.138;2023-05-02T00:43:30;33.05;;;20.23;;
20411;SDS011;10365;52.578;8.138;2023-05-02T00:45:55;35.75;;;20.23;;
20411;SDS011;10365;52.578;8.138;2023-05-02T00:48:21;30.23;;;19.65;;
20411;SDS011;10365;52.578;8.138;2023-05-02T00:50:47;32.67;;;18.23;;
20411;SDS011;10365;52.578;8.138;2023-05-02T00:53:12;33.47;;;20.08;;
20411;SDS011;10365;52.578;8.138;2023-05-02T00:55:38;31.52;;;18.77;;
20411;SDS011;10365;52.578;8.138;2023-05-02T00:58:04;32.33;;;19.15;;
20411;SDS011;10365;52.578;8.138;2023-05-02T01:00:45;35.63;;;20.30;;
20411;SDS011;10365;52.578;8.138;2023-05-02T01:03:26;34.28;;;19.73;;
20411;SDS011;10365;52.578;8.138;2023-05-02T01:08:29;31.02;;;19.20;;
20411;SDS011;10365;52.578;8.138;2023-05-02T01:11:04;33.83;;;19.27;;
20411;SDS011;10365;52.578;8.138;2023-05-02T01:13:37;36.83;;;19.88;;
20411;SDS011;10365;52.578;8.138;2023-05-02T01:16:03;31.95;;;19.55;;
20411;SDS011;10365;52.578;8.138;2023-05-02T01:18:31;35.60;;;20.35;;
20411;SDS011;10365;52.578;8.138;2023-05-02T01:20:59;35.55;;;20.65;;
20411;SDS011;10365;52.578;8.138;2023-05-02T01:23:37;33.47;;;19.77;;
20411;SDS011;10365;52.578;8.138;2023-05-02T01:30:56;32.35;;;18.67;;
20411;SDS011;10365;52.578;8.138;2023-05-02T01:33:23;37.17;;;20.52;;
20411;SDS011;10365;52.578;8.138;2023-05-02T01:35:50;38.80;;;20.35;;
20411;SDS011;10365;52.578;8.138;2023-05-02T01:38:17;39.45;;;20.40;;
20411;SDS011;10365;52.578;8.138;2023-05-02T01:40:43;37.90;;;20.20;;
20411;SDS011;10365;52.578;8.138;2023-05-02T01:43:10;39.55;;;20.17;;
20411;SDS011;10365;52.578;8.138;2023-05-02T01:45:36;34.25;;;20.05;;
20411;SDS011;10365;52.578;8.138;2023-05-02T01:48:04;40.65;;;20.20;;
20411;SDS011;10365;52.578;8.138;2023-05-02T01:50:30;32.58;;;17.90;;
20411;SDS011;10365;52.578;8.138;2023-05-02T01:52:55;33.35;;;17.77;;
20411;SDS011;10365;52.578;8.138;2023-05-02T01:55:22;29.02;;;16.73;;
20411;SDS011;10365;52.578;8.138;2023-05-02T01:57:48;33.70;;;17.98;;
20411;SDS011;10365;52.578;8.138;2023-05-02T02:00:17;28.63;;;15.30;;
20411;SDS011;10365;52.578;8.138;2023-05-02T02:02:43;24.95;;;14.40;;
20411;SDS011;10365;52.578;8.138;2023-05-02T02:05:12;27.35;;;13.55;;
20411;SDS011;10365;52.578;8.138;2023-05-02T02:07:38;25.27;;;13.15;;
20411;SDS011;10365;52.578;8.138;2023-05-02T02:10:04;23.08;;;12.80;;
20411;SDS011;10365;52.578;8.138;2023-05-02T02:12:40;30.08;;;13.07;;
20411;SDS011;10365;52.578;8.138;2023-05-02T02:15:16;26.73;;;12.80;;
20411;SDS011;10365;52.578;8.138;2023-05-02T02:17:42;25.00;;;13.43;;
20411;SDS011;10365;52.578;8.138;2023-05-02T02:20:10;26.98;;;12.70;;
20411;SDS011;10365;52.578;8.138;2023-05-02T02:22:36;27.23;;;12.23;;
20411;SDS011;10365;52.578;8.138;2023-05-02T02:25:04;21.55;;;11.70;;
20411;SDS011;10365;52.578;8.138;2023-05-02T02:27:30;28.00;;;13.73;;
20411;SDS011;10365;52.578;8.138;2023-05-02T02:29:55;35.30;;;13.50;;
20411;SDS011;10365;52.578;8.138;2023-05-02T02:32:21;27.83;;;13.85;;
20411;SDS011;10365;52.578;8.138;2023-05-02T02:34:46;25.25;;;12.40;;
20411;SDS011;10365;52.578;8.138;2023-05-02T02:37:13;26.73;;;13.77;;
20411;SDS011;10365;52.578;8.138;2023-05-02T02:39:52;25.38;;;12.65;;
20411;SDS011;10365;52.578;8.138;2023-05-02T02:42:35;28.08;;;13.45;;
20411;SDS011;10365;52.578;8.138;2023-05-02T02:47:49;25.88;;;13.85;;
20411;SDS011;10365;52.578;8.138;2023-05-02T02:50:19;25.98;;;12.05;;
20411;SDS011;10365;52.578;8.138;2023-05-02T02:57:59;22.60;;;11.30;;
20411;SDS011;10365;52.578;8.138;2023-05-02T03:00:26;20.17;;;10.68;;
20411;SDS011;10365;52.578;8.138;2023-05-02T03:02:53;20.65;;;10.52;;
20411;SDS011;10365;52.578;8.138;2023-05-02T03:05:18;19.92;;;10.60;;
20411;SDS011;10365;52.578;8.138;2023-05-02T03:07:45;22.05;;;10.98;;
20411;SDS011;10365;52.578;8.138;2023-05-02T03:10:10;21.95;;;10.10;;
20411;SDS011;10365;52.578;8.138;2023-05-02T03:12:37;17.67;;;8.07;;
20411;SDS011;10365;52.578;8.138;2023-05-02T03:17:50;16.45;;;8.07;;
20411;SDS011;10365;52.578;8.138;2023-05-02T03:20:15;14.30;;;7.68;;
20411;SDS011;10365;52.578;8.138;2023-05-02T03:22:40;11.45;;;6.10;;
20411;SDS011;10365;52.578;8.138;2023-05-02T03:25:06;16.42;;;7.32;;
20411;SDS011;10365;52.578;8.138;2023-05-02T03:27:32;14.63;;;6.85;;
20411;SDS011;10365;52.578;8.138;2023-05-02T03:30:00;10.52;;;6.75;;
20411;SDS011;10365;52.578;8.138;2023-05-02T03:32:26;13.55;;;6.93;;
20411;SDS011;10365;52.578;8.138;2023-05-02T03:34:51;13.90;;;6.70;;
20411;SDS011;10365;52.578;8.138;2023-05-02T03:37:17;11.82;;;6.15;;
20411;SDS011;10365;52.578;8.138;2023-05-02T03:39:42;10.43;;;6.07;;
20411;SDS011;10365;52.578;8.138;2023-05-02T03:42:08;10.05;;;5.50;;
20411;SDS011;10365;52.578;8.138;2023-05-02T03:44:33;8.32;;;4.80;;
20411;SDS011;10365;52.578;8.138;2023-05-02T03:46:59;10.25;;;5.80;;
20411;SDS011;10365;52.578;8.138;2023-05-02T03:49:25;9.75;;;5.45;;
20411;SDS011;10365;52.578;8.138;2023-05-02T03:51:52;7.68;;;4.65;;
20411;SDS011;10365;52.578;8.138;2023-05-02T03:54:22;8.43;;;5.10;;
20411;SDS011;10365;52.578;8.138;2023-05-02T03:56:49;10.73;;;5.35;;
20411;SDS011;10365;52.578;8.138;2023-05-02T03:59:21;10.10;;;5.65;;
20411;SDS011;10365;52.578;8.138;2023-05-02T04:01:50;11.55;;;5.72;;
20411;SDS011;10365;52.578;8.138;2023-05-02T04:04:16;12.57;;;5.60;;
20411;SDS011;10365;52.578;8.138;2023-05-02T04:06:48;12.75;;;5.03;;
20411;SDS011;10365;52.578;8.138;2023-05-02T04:09:15;11.63;;;5.07;;
20411;SDS011;10365;52.578;8.138;2023-05-02T04:11:57;10.82;;;4.80;;
20411;SDS011;10365;52.578;8.138;2023-05-02T04:14:22;13.20;;;5.70;;
20411;SDS011;10365;52.578;8.138;2023-05-02T04:16:50;11.43;;;5.63;;
20411;SDS011;10365;52.578;8.138;2023-05-02T04:19:23;10.07;;;5.10;;
20411;SDS011;10365;52.578;8.138;2023-05-02T04:21:48;17.33;;;4.72;;
20411;SDS011;10365;52.578;8.138;2023-05-02T04:24:15;20.92;;;5.38;;
20411;SDS011;10365;52.578;8.138;2023-05-02T04:26:41;10.90;;;4.05;;
20411;SDS011;10365;52.578;8.138;2023-05-02T04:29:10;14.30;;;5.03;;
20411;SDS011;10365;52.578;8.138;2023-05-02T04:31:35;8.80;;;4.07;;
20411;SDS011;10365;52.578;8.138;2023-05-02T04:34:02;13.32;;;4.97;;
20411;SDS011;10365;52.578;8.138;2023-05-02T04:36:33;13.80;;;4.45;;
20411;SDS011;10365;52.578;8.138;2023-05-02T04:38:58;15.00;;;5.15;;
20411;SDS011;10365;52.578;8.138;2023-05-02T04:41:24;17.60;;;5.07;;
20411;SDS011;10365;52.578;8.138;2023-05-02T04:43:56;13.88;;;5.00;;
20411;SDS011;10365;52.578;8.138;2023-05-02T04:46:23;14.95;;;4.50;;
20411;SDS011;10365;52.578;8.138;2023-05-02T04:48:48;12.43;;;5.18;;
20411;SDS011;10365;52.578;8.138;2023-05-02T04:51:13;19.60;;;5.00;;
20411;SDS011;10365;52.578;8.138;2023-05-02T04:53:39;23.55;;;5.47;;
20411;SDS011;10365;52.578;8.138;2023-05-02T04:56:04;11.73;;;4.47;;
20411;SDS011;10365;52.578;8.138;2023-05-02T04:58:33;18.50;;;5.10;;
20411;SDS011;10365;52.578;8.138;2023-05-02T05:01:02;21.25;;;5.10;;
20411;SDS011;10365;52.578;8.138;2023-05-02T05:03:28;16.13;;;5.07;;
20411;SDS011;10365;52.578;8.138;2023-05-02T05:05:55;14.38;;;4.60;;
20411;SDS011;10365;52.578;8.138;2023-05-02T05:08:22;16.02;;;5.82;;
20411;SDS011;10365;52.578;8.138;2023-05-02T05:10:47;20.77;;;5.47;;
20411;SDS011;10365;52.578;8.138;2023-05-02T05:13:15;16.92;;;5.43;;
20411;SDS011;10365;52.578;8.138;2023-05-02T05:15:42;25.60;;;6.75;;
20411;SDS011;10365;52.578;8.138;2023-05-02T05:18:09;23.75;;;6.28;;
20411;SDS011;10365;52.578;8.138;2023-05-02T05:20:34;25.58;;;6.55;;
20411;SDS011;10365;52.578;8.138;2023-05-02T05:23:01;20.73;;;5.75;;
20411;SDS011;10365;52.578;8.138;2023-05-02T05:25:27;28.67;;;5.80;;
20411;SDS011;10365;52.578;8.138;2023-05-02T05:27:53;22.88;;;5.82;;
20411;SDS011;10365;52.578;8.138;2023-05-02T05:30:20;28.00;;;6.18;;
20411;SDS011;10365;52.578;8.138;2023-05-02T05:32:46;16.73;;;5.60;;
20411;SDS011;10365;52.578;8.138;2023-05-02T05:35:11;23.60;;;6.63;;
20411;SDS011;10365;52.578;8.138;2023-05-02T05:37:38;27.42;;;6.78;;
20411;SDS011;10365;52.578;8.138;2023-05-02T05:40:09;26.15;;;6.10;;
20411;SDS011;10365;52.578;8.138;2023-05-02T05:42:36;23.52;;;5.68;;
20411;SDS011;10365;52.578;8.138;2023-05-02T05:45:07;22.75;;;6.13;;
20411;SDS011;10365;52.578;8.138;2023-05-02T05:47:33;29.23;;;5.38;;
20411;SDS011;10365;52.578;8.138;2023-05-02T05:49:58;29.23;;;5.90;;
20411;SDS011;10365;52.578;8.138;2023-05-02T05:52:28;23.85;;;5.93;;
20411;SDS011;10365;52.578;8.138;2023-05-02T05:54:55;22.20;;;5.72;;
20411;SDS011;10365;52.578;8.138;2023-05-02T05:57:25;31.75;;;6.32;;
20411;SDS011;10365;52.578;8.138;2023-05-02T05:59:52;19.60;;;5.72;;
20411;SDS011;10365;52.578;8.138;2023-05-02T06:02:18;17.40;;;4.88;;
20411;SDS011;10365;52.578;8.138;2023-05-02T06:04:44;19.63;;;4.75;;
20411;SDS011;10365;52.578;8.138;2023-05-02T06:07:11;22.38;;;5.05;;
20411;SDS011;10365;52.578;8.138;2023-05-02T06:09:36;21.50;;;4.80;;
20411;SDS011;10365;52.578;8.138;2023-05-02T06:12:02;18.85;;;4.60;;
20411;SDS011;10365;52.578;8.138;2023-05-02T06:14:30;29.80;;;5.07;;
20411;SDS011;10365;52.578;8.138;2023-05-02T06:16:57;23.92;;;5.18;;
20411;SDS011;10365;52.578;8.138;2023-05-02T06:19:22;19.15;;;4.13;;
20411;SDS011;10365;52.578;8.138;2023-05-02T06:21:48;19.65;;;5.13;;
20411;SDS011;10365;52.578;8.138;2023-05-02T06:24:13;18.50;;;4.30;;
20411;SDS011;10365;52.578;8.138;2023-05-02T06:26:39;24.58;;;4.75;;
20411;SDS011;10365;52.578;8.138;2023-05-02T06:29:04;20.75;;;6.22;;
20411;SDS011;10365;52.578;8.138;2023-05-02T06:31:30;22.35;;;5.10;;
20411;SDS011;10365;52.578;8.138;2023-05-02T06:33:55;15.95;;;4.65;;
20411;SDS011;10365;52.578;8.138;2023-05-02T06:36:20;12.80;;;3.58;;
20411;SDS011;10365;52.578;8.138;2023-05-02T06:38:46;13.95;;;3.20;;
20411;SDS011;10365;52.578;8.138;2023-05-02T06:41:12;15.10;;;3.22;;
20411;SDS011;10365;52.578;8.138;2023-05-02T06:43:39;18.77;;;3.35;;
20411;SDS011;10365;52.578;8.138;2023-05-02T06:46:04;12.48;;;2.85;;
20411;SDS011;10365;52.578;8.138;2023-05-02T06:48:29;11.10;;;2.60;;
20411;SDS011;10365;52.578;8.138;2023-05-02T06:50:55;9.73;;;3.15;;
20411;SDS011;10365;52.578;8.138;2023-05-02T06:53:20;10.23;;;2.65;;
20411;SDS011;10365;52.578;8.138;2023-05-02T06:55:46;19.40;;;3.35;;
20411;SDS011;10365;52.578;8.138;2023-05-02T06:58:19;16.98;;;3.35;;
20411;SDS011;10365;52.578;8.138;2023-05-02T07:00:45;14.27;;;2.75;;
20411;SDS011;10365;52.578;8.138;2023-05-02T07:03:11;12.50;;;2.42;;
20411;SDS011;10365;52.578;8.138;2023-05-02T07:05:36;10.75;;;2.90;;
20411;SDS011;10365;52.578;8.138;2023-05-02T07:08:02;10.70;;;2.60;;
20411;SDS011;10365;52.578;8.138;2023-05-02T07:10:28;9.60;;;2.22;;
20411;SDS011;10365;52.578;8.138;2023-05-02T07:12:53;11.38;;;2.25;;
20411;SDS011;10365;52.578;8.138;2023-05-02T07:15:18;15.80;;;2.42;;
20411;SDS011;10365;52.578;8.138;2023-05-02T07:17:44;14.30;;;2.53;;
20411;SDS011;10365;52.578;8.138;2023-05-02T07:20:11;15.27;;;2.60;;
20411;SDS011;10365;52.578;8.138;2023-05-02T07:22:37;14.60;;;2.10;;
20411;SDS011;10365;52.578;8.138;2023-05-02T07:25:02;12.13;;;2.08;;
20411;SDS011;10365;52.578;8.138;2023-05-02T07:27:28;7.60;;;2.03;;
20411;SDS011;10365;52.578;8.138;2023-05-02T07:29:53;14.15;;;2.20;;
20411;SDS011;10365;52.578;8.138;2023-05-02T07:32:19;7.03;;;1.85;;
20411;SDS011;10365;52.578;8.138;2023-05-02T07:34:45;6.40;;;1.88;;
20411;SDS011;10365;52.578;8.138;2023-05-02T07:37:11;8.30;;;1.85;;
20411;SDS011;10365;52.578;8.138;2023-05-02T07:39:36;9.98;;;2.72;;
20411;SDS011;10365;52.578;8.138;2023-05-02T07:42:01;15.02;;;2.80;;
20411;SDS011;10365;52.578;8.138;2023-05-02T07:44:27;10.52;;;3.28;;
20411;SDS011;10365;52.578;8.138;2023-05-02T07:46:53;12.35;;;2.42;;
20411;SDS011;10365;52.578;8.138;2023-05-02T07:49:18;12.88;;;2.53;;
20411;SDS011;10365;52.578;8.138;2023-05-02T07:51:44;11.57;;;2.28;;
20411;SDS011;10365;52.578;8.138;2023-05-02T07:54:20;9.80;;;2.30;;
20411;SDS011;10365;52.578;8.138;2023-05-02T07:56:46;13.43;;;2.95;;
20411;SDS011;10365;52.578;8.138;2023-05-02T07:59:11;13.60;;;2.92;;
20411;SDS011;10365;52.578;8.138;2023-05-02T08:01:37;13.68;;;2.50;;
20411;SDS011;10365;52.578;8.138;2023-05-02T08:04:03;13.20;;;2.65;;
20411;SDS011;10365;52.578;8.138;2023-05-02T08:06:28;9.55;;;2.83;;
20411;SDS011;10365;52.578;8.138;2023-05-02T08:08:54;10.07;;;2.83;;
20411;SDS011;10365;52.578;8.138;2023-05-02T08:11:19;10.57;;;2.30;;
20411;SDS011;10365;52.578;8.138;2023-05-02T08:13:53;19.13;;;2.70;;
20411;SDS011;10365;52.578;8.138;2023-05-02T08:16:22;11.02;;;2.45;;
20411;SDS011;10365;52.578;8.138;2023-05-02T08:18:51;13.93;;;2.67;;
20411;SDS011;10365;52.578;8.138;2023-05-02T08:21:42;10.18;;;2.42;;
20411;SDS011;10365;52.578;8.138;2023-05-02T08:24:11;14.82;;;2.42;;
20411;SDS011;10365;52.578;8.138;2023-05-02T08:26:45;21.95;;;3.75;;
20411;SDS011;10365;52.578;8.138;2023-05-02T08:29:11;12.65;;;2.60;;
20411;SDS011;10365;52.578;8.138;2023-05-02T08:31:37;13.20;;;2.60;;
20411;SDS011;10365;52.578;8.138;2023-05-02T08:34:11;14.82;;;2.22;;
20411;SDS011;10365;52.578;8.138;2023-05-02T08:36:39;12.70;;;2.92;;
20411;SDS011;10365;52.578;8.138;2023-05-02T08:39:17;9.32;;;2.50;;
20411;SDS011;10365;52.578;8.138;2023-05-02T08:41:48;11.90;;;2.63;;
20411;SDS011;10365;52.578;8.138;2023-05-02T08:44:18;11.20;;;2.40;;
20411;SDS011;10365;52.578;8.138;2023-05-02T08:46:46;10.93;;;2.58;;
20411;SDS011;10365;52.578;8.138;2023-05-02T08:49:22;14.60;;;2.47;;
20411;SDS011;10365;52.578;8.138;2023-05-02T08:51:54;10.38;;;2.45;;
20411;SDS011;10365;52.578;8.138;2023-05-02T08:54:23;12.30;;;2.67;;
20411;SDS011;10365;52.578;8.138;2023-05-02T08:56:52;7.03;;;2.22;;
20411;SDS011;10365;52.578;8.138;2023-05-02T08:59:22;9.30;;;2.25;;
20411;SDS011;10365;52.578;8.138;2023-05-02T09:02:01;6.97;;;1.80;;
20411;SDS011;10365;52.578;8.138;2023-05-02T09:04:31;7.68;;;2.10;;
20411;SDS011;10365;52.578;8.138;2023-05-02T09:06:58;9.00;;;2.03;;
20411;SDS011;10365;52.578;8.138;2023-05-02T09:09:32;14.55;;;2.17;;
20411;SDS011;10365;52.578;8.138;2023-05-02T09:12:01;5.38;;;1.92;;
20411;SDS011;10365;52.578;8.138;2023-05-02T09:14:35;15.10;;;2.65;;
20411;SDS011;10365;52.578;8.138;2023-05-02T09:17:09;9.40;;;2.03;;
20411;SDS011;10365;52.578;8.138;2023-05-02T09:19:37;7.35;;;2.63;;
20411;SDS011;10365;52.578;8.138;2023-05-02T09:24:42;11.60;;;2.28;;
20411;SDS011;10365;52.578;8.138;2023-05-02T09:27:09;8.77;;;2.83;;
20411;SDS011;10365;52.578;8.138;2023-05-02T09:29:37;13.30;;;2.67;;
20411;SDS011;10365;52.578;8.138;2023-05-02T09:32:07;12.45;;;2.40;;
20411;SDS011;10365;52.578;8.138;2023-05-02T09:34:39;8.90;;;2.20;;
20411;SDS011;10365;52.578;8.138;2023-05-02T09:37:54;8.68;;;2.42;;
20411;SDS011;10365;52.578;8.138;2023-05-02T09:40:08;8.10;;;2.13;;
20411;SDS011;10365;52.578;8.138;2023-05-02T09:42:40;9.10;;;1.80;;
20411;SDS011;10365;52.578;8.138;2023-05-02T09:45:17;13.07;;;2.20;;
20411;SDS011;10365;52.578;8.138;2023-05-02T09:48:00;10.98;;;2.33;;
20411;SDS011;10365;52.578;8.138;2023-05-02T09:50:37;8.50;;;2.00;;
20411;SDS011;10365;52.578;8.138;2023-05-02T09:53:12;6.75;;;2.20;;
20411;SDS011;10365;52.578;8.138;2023-05-02T09:58:25;12.13;;;2.05;;
20411;SDS011;10365;52.578;8.138;2023-05-02T10:00:57;13.98;;;2.47;;
20411;SDS011;10365;52.578;8.138;2023-05-02T10:03:30;9.80;;;2.00;;
20411;SDS011;10365;52.578;8.138;2023-05-02T10:06:03;7.65;;;1.98;;
20411;SDS011;10365;52.578;8.138;2023-05-02T10:08:44;10.20;;;2.03;;
20411;SDS011;10365;52.578;8.138;2023-05-02T10:11:22;5.75;;;1.60;;
20411;SDS011;10365;52.578;8.138;2023-05-02T10:16:26;7.97;;;2.00;;
20411;SDS011;10365;52.578;8.138;2023-05-02T10:21:49;10.57;;;2.40;;
20411;SDS011;10365;52.578;8.138;2023-05-02T10:24:20;6.72;;;2.20;;
20411;SDS011;10365;52.578;8.138;2023-05-02T10:26:55;3.60;;;1.80;;
20411;SDS011;10365;52.578;8.138;2023-05-02T10:29:29;11.60;;;2.72;;
20411;SDS011;10365;52.578;8.138;2023-05-02T10:32:01;11.98;;;2.40;;
20411;SDS011;10365;52.578;8.138;2023-05-02T10:34:39;5.97;;;2.30;;
20411;SDS011;10365;52.578;8.138;2023-05-02T10:37:08;9.80;;;2.35;;
20411;SDS011;10365;52.578;8.138;2023-05-02T10:39:36;7.70;;;2.20;;
20411;SDS011;10365;52.578;8.138;2023-05-02T10:42:13;10.48;;;2.80;;
20411;SDS011;10365;52.578;8.138;2023-05-02T10:44:42;6.05;;;1.77;;
20411;SDS011;10365;52.578;8.138;2023-05-02T10:47:23;12.73;;;2.40;;
20411;SDS011;10365;52.578;8.138;2023-05-02T10:49:56;7.70;;;2.58;;
20411;SDS011;10365;52.578;8.138;2023-05-02T10:52:34;11.65;;;3.10;;
20411;SDS011;10365;52.578;8.138;2023-05-02T11:00:31;13.38;;;2.42;;
20411;SDS011;10365;52.578;8.138;2023-05-02T11:03:02;10.73;;;2.80;;
20411;SDS011;10365;52.578;8.138;2023-05-02T11:05:33;12.85;;;2.70;;
20411;SDS011;10365;52.578;8.138;2023-05-02T11:14:00;9.68;;;3.88;;
20411;SDS011;10365;52.578;8.138;2023-05-02T11:19:21;8.57;;;2.25;;
20411;SDS011;10365;52.578;8.138;2023-05-02T11:22:38;10.40;;;3.67;;
20411;SDS011;10365;52.578;8.138;2023-05-02T11:24:48;12.80;;;2.78;;
20411;SDS011;10365;52.578;8.138;2023-05-02T11:30:44;7.25;;;2.47;;
20411;SDS011;10365;52.578;8.138;2023-05-02T11:33:12;6.50;;;2.10;;
20411;SDS011;10365;52.578;8.138;2023-05-02T11:35:40;7.88;;;2.20;;
20411;SDS011;10365;52.578;8.138;2023-05-02T11:38:24;7.70;;;2.03;;
20411;SDS011;10365;52.578;8.138;2023-05-02T11:43:49;8.90;;;2.03;;
20411;SDS011;10365;52.578;8.138;2023-05-02T11:49:11;7.32;;;2.00;;
20411;SDS011;10365;52.578;8.138;2023-05-02T11:51:48;5.22;;;2.08;;
20411;SDS011;10365;52.578;8.138;2023-05-02T11:54:19;9.10;;;1.95;;
20411;SDS011;10365;52.578;8.138;2023-05-02T11:56:56;6.78;;;2.17;;
20411;SDS011;10365;52.578;8.138;2023-05-02T11:59:25;10.05;;;2.35;;
20411;SDS011;10365;52.578;8.138;2023-05-02T12:01:53;6.78;;;2.00;;
20411;SDS011;10365;52.578;8.138;2023-05-02T12:04:29;2.75;;;1.85;;
20411;SDS011;10365;52.578;8.138;2023-05-02T12:06:58;8.75;;;2.72;;
20411;SDS011;10365;52.578;8.138;2023-05-02T12:09:34;6.60;;;2.20;;
20411;SDS011;10365;52.578;8.138;2023-05-02T12:12:01;5.55;;;1.95;;
20411;SDS011;10365;52.578;8.138;2023-05-02T12:14:28;4.22;;;1.92;;
20411;SDS011;10365;52.578;8.138;2023-05-02T12:16:56;5.38;;;2.45;;
20411;SDS011;10365;52.578;8.138;2023-05-02T12:19:35;7.80;;;2.53;;
20411;SDS011;10365;52.578;8.138;2023-05-02T12:22:09;7.95;;;1.90;;
20411;SDS011;10365;52.578;8.138;2023-05-02T12:24:35;4.68;;;1.90;;
20411;SDS011;10365;52.578;8.138;2023-05-02T12:27:13;7.63;;;2.05;;
20411;SDS011;10365;52.578;8.138;2023-05-02T12:29:57;5.45;;;1.83;;
20411;SDS011;10365;52.578;8.138;2023-05-02T12:32:27;6.47;;;1.70;;
20411;SDS011;10365;52.578;8.138;2023-05-02T12:34:58;3.90;;;1.50;;
20411;SDS011;10365;52.578;8.138;2023-05-02T12:37:30;3.42;;;1.35;;
20411;SDS011;10365;52.578;8.138;2023-05-02T12:42:41;1.95;;;1.20;;
20411;SDS011;10365;52.578;8.138;2023-05-02T12:45:17;5.07;;;1.13;;
20411;SDS011;10365;52.578;8.138;2023-05-02T12:50:55;3.67;;;1.10;;
20411;SDS011;10365;52.578;8.138;2023-05-02T12:53:44;3.65;;;1.30;;
20411;SDS011;10365;52.578;8.138;2023-05-02T12:56:14;5.88;;;1.20;;
20411;SDS011;10365;52.578;8.138;2023-05-02T12:59:01;4.32;;;1.33;;
20411;SDS011;10365;52.578;8.138;2023-05-02T13:04:39;3.08;;;1.30;;
20411;SDS011;10365;52.578;8.138;2023-05-02T13:07:05;3.40;;;1.38;;
20411;SDS011;10365;52.578;8.138;2023-05-02T13:09:31;4.28;;;1.52;;
20411;SDS011;10365;52.578;8.138;2023-05-02T13:11:56;2.88;;;1.30;;
20411;SDS011;10365;52.578;8.138;2023-05-02T13:14:23;3.97;;;1.60;;
20411;SDS011;10365;52.578;8.138;2023-05-02T13:16:49;4.45;;;1.10;;
20411;SDS011;10365;52.578;8.138;2023-05-02T13:19:17;3.88;;;1.40;;
20411;SDS011;10365;52.578;8.138;2023-05-02T13:21:43;3.65;;;1.20;;
20411;SDS011;10365;52.578;8.138;2023-05-02T13:24:08;3.05;;;1.30;;
20411;SDS011;10365;52.578;8.138;2023-05-02T13:26:33;2.30;;;0.90;;
20411;SDS011;10365;52.578;8.138;2023-05-02T13:28:59;4.93;;;1.45;;
20411;SDS011;10365;52.578;8.138;2023-05-02T13:31:24;6.25;;;1.83;;
20411;SDS011;10365;52.578;8.138;2023-05-02T13:33:50;3.13;;;1.15;;
20411;SDS011;10365;52.578;8.138;2023-05-02T13:36:15;4.03;;;1.55;;
20411;SDS011;10365;52.578;8.138;2023-05-02T13:38:41;5.57;;;1.40;;
20411;SDS011;10365;52.578;8.138;2023-05-02T13:41:06;12.30;;;1.40;;
20411;SDS011;10365;52.578;8.138;2023-05-02T13:43:32;4.05;;;1.27;;
20411;SDS011;10365;52.578;8.138;2023-05-02T13:45:57;7.82;;;1.30;;
20411;SDS011;10365;52.578;8.138;2023-05-02T13:48:22;2.78;;;1.20;;
20411;SDS011;10365;52.578;8.138;2023-05-02T13:50:49;2.80;;;1.17;;
20411;SDS011;10365;52.578;8.138;2023-05-02T13:53:14;2.45;;;1.00;;
20411;SDS011;10365;52.578;8.138;2023-05-02T13:55:40;5.70;;;1.20;;
20411;SDS011;10365;52.578;8.138;2023-05-02T13:58:05;4.32;;;1.00;;
20411;SDS011;10365;52.578;8.138;2023-05-02T14:00:31;5.10;;;1.10;;
20411;SDS011;10365;52.578;8.138;2023-05-02T14:02:56;3.53;;;0.98;;
20411;SDS011;10365;52.578;8.138;2023-05-02T14:05:22;3.08;;;1.00;;
20411;SDS011;10365;52.578;8.138;2023-05-02T14:07:47;5.10;;;1.20;;
20411;SDS011;10365;52.578;8.138;2023-05-02T14:10:13;4.60;;;1.17;;
20411;SDS011;10365;52.578;8.138;2023-05-02T14:12:38;6.65;;;1.40;;
20411;SDS011;10365;52.578;8.138;2023-05-02T14:15:04;4.38;;;1.35;;
20411;SDS011;10365;52.578;8.138;2023-05-02T14:17:29;5.45;;;1.40;;
20411;SDS011;10365;52.578;8.138;2023-05-02T14:19:56;4.43;;;1.38;;
20411;SDS011;10365;52.578;8.138;2023-05-02T14:22:21;7.18;;;1.42;;
20411;SDS011;10365;52.578;8.138;2023-05-02T14:24:46;10.57;;;1.65;;
20411;SDS011;10365;52.578;8.138;2023-05-02T14:27:12;7.55;;;1.77;;
20411;SDS011;10365;52.578;8.138;2023-05-02T14:29:43;4.88;;;1.30;;
20411;SDS011;10365;52.578;8.138;2023-05-02T14:32:08;3.65;;;1.10;;
20411;SDS011;10365;52.578;8.138;2023-05-02T14:34:34;4.90;;;1.35;;
20411;SDS011;10365;52.578;8.138;2023-05-02T14:36:59;4.60;;;0.95;;
20411;SDS011;10365;52.578;8.138;2023-05-02T14:39:25;3.78;;;1.20;;
20411;SDS011;10365;52.578;8.138;2023-05-02T14:42:09;8.85;;;1.70;;
20411;SDS011;10365;52.578;8.138;2023-05-02T14:44:34;4.72;;;1.20;;
20411;SDS011;10365;52.578;8.138;2023-05-02T14:47:02;5.20;;;1.20;;
20411;SDS011;10365;52.578;8.138;2023-05-02T14:49:27;4.15;;;1.05;;
20411;SDS011;10365;52.578;8.138;2023-05-02T14:51:59;2.95;;;1.02;;
20411;SDS011;10365;52.578;8.138;2023-05-02T14:54:27;4.72;;;1.30;;
20411;SDS011;10365;52.578;8.138;2023-05-02T14:57:08;5.90;;;1.20;;
20411;SDS011;10365;52.578;8.138;2023-05-02T14:59:33;4.18;;;1.27;;
20411;SDS011;10365;52.578;8.138;2023-05-02T15:02:07;3.00;;;0.88;;
20411;SDS011;10365;52.578;8.138;2023-05-02T15:04:32;2.95;;;1.30;;
20411;SDS011;10365;52.578;8.138;2023-05-02T15:07:01;4.30;;;1.50;;
20411;SDS011;10365;52.578;8.138;2023-05-02T15:09:29;3.60;;;1.40;;
20411;SDS011;10365;52.578;8.138;2023-05-02T15:12:07;3.55;;;1.02;;
20411;SDS011;10365;52.578;8.138;2023-05-02T15:14:38;4.20;;;1.00;;
20411;SDS011;10365;52.578;8.138;2023-05-02T15:17:06;2.75;;;0.93;;
20411;SDS011;10365;52.578;8.138;2023-05-02T15:19:34;4.90;;;1.10;;
20411;SDS011;10365;52.578;8.138;2023-05-02T15:22:02;2.63;;;0.90;;
20411;SDS011;10365;52.578;8.138;2023-05-02T15:24:27;7.05;;;1.20;;
20411;SDS011;10365;52.578;8.138;2023-05-02T15:26:58;2.05;;;0.70;;
20411;SDS011;10365;52.578;8.138;2023-05-02T15:29:24;5.85;;;1.10;;
20411;SDS011;10365;52.578;8.138;2023-05-02T15:31:52;4.90;;;1.10;;
20411;SDS011;10365;52.578;8.138;2023-05-02T15:34:18;5.70;;;1.20;;
20411;SDS011;10365;52.578;8.138;2023-05-02T15:36:56;5.35;;;0.90;;
20411;SDS011;10365;52.578;8.138;2023-05-02T15:39:23;4.07;;;1.02;;
20411;SDS011;10365;52.578;8.138;2023-05-02T15:41:50;6.80;;;1.85;;
20411;SDS011;10365;52.578;8.138;2023-05-02T15:44:18;8.18;;;1.35;;
20411;SDS011;10365;52.578;8.138;2023-05-02T15:46:44;2.53;;;0.90;;